createdAt,value
2022-09-20T00:00:53.876Z,51.66
2022-09-20T00:01:53.798Z,51.01
2022-09-20T00:02:53.797Z,49.25
2022-09-20T00:03:53.774Z,51.71
2022-09-20T00:04:53.808Z,55.16
2022-09-20T00:05:53.769Z,52.19
2022-09-20T00:06:53.762Z,56.06
2022-09-20T00:07:53.746Z,54.11
2022-09-20T00:08:53.769Z,51.94
2022-09-20T00:09:53.753Z,50.77
2022-09-20T00:10:53.736Z,51.76
2022-09-20T00:11:53.728Z,57.65
2022-09-20T00:12:53.717Z,52.81
2022-09-20T00:13:53.831Z,54.76
2022-09-20T00:14:53.717Z,54.31
2022-09-20T00:15:53.694Z,54.84
2022-09-20T00:16:53.808Z,52.83
2022-09-20T00:17:53.673Z,53.92
2022-09-20T00:18:54.682Z,53.11
2022-09-20T00:19:53.660Z,50.29
2022-09-20T00:20:53.655Z,47.25
2022-09-20T00:21:53.679Z,47.63
2022-09-20T00:22:53.638Z,52.14
2022-09-20T00:23:53.729Z,49.71
2022-09-20T00:24:53.635Z,48.46
2022-09-20T00:25:53.635Z,54.75
2022-09-20T00:26:53.637Z,53.54
2022-09-20T00:27:53.619Z,53.67
2022-09-20T00:28:53.724Z,51.31
2022-09-20T00:29:53.604Z,52.68
2022-09-20T00:30:53.608Z,50.97
2022-09-20T00:31:53.646Z,50.43
2022-09-20T00:32:53.596Z,53.16
2022-09-20T00:33:53.583Z,52.98
2022-09-20T00:34:53.571Z,49.08
2022-09-20T00:35:53.562Z,52.50
2022-09-20T00:36:53.559Z,51.99
2022-09-20T00:37:53.573Z,54.83
2022-09-20T00:38:53.543Z,52.58
2022-09-20T00:39:53.546Z,51.33
2022-09-20T00:40:53.534Z,52.58
2022-09-20T00:41:53.524Z,53.62
2022-09-20T00:42:53.531Z,50.08
2022-09-20T00:43:53.518Z,48.18
2022-09-20T00:44:53.502Z,53.45
2022-09-20T00:45:53.527Z,50.99
2022-09-20T00:46:53.495Z,49.09
2022-09-20T00:47:53.479Z,49.46
2022-09-20T00:48:53.495Z,54.14
2022-09-20T00:49:53.482Z,52.48
2022-09-20T00:50:53.470Z,51.10
2022-09-20T00:51:53.459Z,47.33
2022-09-20T00:52:53.459Z,49.41
2022-09-20T00:53:53.466Z,52.18
2022-09-20T00:54:53.443Z,51.06
2022-09-20T00:55:53.443Z,53.70
2022-09-20T00:56:53.430Z,54.13
2022-09-20T00:57:53.428Z,48.29
2022-09-20T00:58:53.418Z,52.10
2022-09-20T00:59:53.427Z,52.06
2022-09-20T01:00:53.424Z,49.51
2022-09-20T01:01:53.426Z,52.92
2022-09-20T01:02:53.394Z,51.65
2022-09-20T01:03:53.383Z,50.00
2022-09-20T01:04:53.379Z,51.06
2022-09-20T01:05:53.375Z,51.53
2022-09-20T01:06:53.379Z,49.79
2022-09-20T01:07:53.359Z,52.39
2022-09-20T01:08:53.356Z,51.92
2022-09-20T01:09:53.342Z,49.02
2022-09-20T01:10:53.850Z,47.95
2022-09-20T01:11:53.342Z,47.99
2022-09-20T01:12:53.338Z,53.34
2022-09-20T01:13:53.322Z,53.21
2022-09-20T01:14:53.306Z,49.94
2022-09-20T01:15:53.309Z,52.73
2022-09-20T01:16:53.371Z,50.59
2022-09-20T01:17:53.310Z,50.39
2022-09-20T01:18:53.282Z,52.64
2022-09-20T01:19:54.286Z,49.21
2022-09-20T01:20:53.279Z,51.15
2022-09-20T01:21:53.274Z,47.62
2022-09-20T01:22:53.262Z,53.50
2022-09-20T01:23:53.271Z,53.81
2022-09-20T01:24:53.248Z,51.14
2022-09-20T01:25:53.234Z,55.74
2022-09-20T01:26:53.237Z,53.48
2022-09-20T01:27:53.249Z,51.88
2022-09-20T01:28:53.279Z,53.57
2022-09-20T01:29:53.210Z,47.98
2022-09-20T01:30:53.208Z,54.53
2022-09-20T01:31:53.263Z,55.71
2022-09-20T01:32:53.207Z,52.23
2022-09-20T01:33:53.182Z,50.71
2022-09-20T01:34:53.183Z,51.53
2022-09-20T01:35:53.170Z,48.73
2022-09-20T01:36:53.174Z,51.49
2022-09-20T01:37:53.158Z,51.34
2022-09-20T01:38:53.166Z,54.74
2022-09-20T01:39:53.144Z,55.59
2022-09-20T01:40:53.146Z,53.39
2022-09-20T01:41:53.170Z,51.11
2022-09-20T01:42:53.124Z,53.52
2022-09-20T01:43:53.217Z,54.12
2022-09-20T01:44:53.112Z,56.25
2022-09-20T01:45:53.173Z,52.68
2022-09-20T01:46:53.096Z,54.46
2022-09-20T01:47:53.090Z,54.97
2022-09-20T01:48:53.082Z,47.39
2022-09-20T01:49:53.068Z,48.86
2022-09-20T01:50:53.074Z,48.37
2022-09-20T01:51:53.054Z,51.32
2022-09-20T01:52:53.057Z,52.83
2022-09-20T01:53:53.046Z,56.39
2022-09-20T01:54:53.046Z,53.40
2022-09-20T01:55:53.050Z,51.62
2022-09-20T01:56:53.035Z,49.61
2022-09-20T01:57:53.030Z,54.82
2022-09-20T01:59:07.235Z,52.35
2022-09-20T01:59:55.006Z,55.99
2022-09-20T02:00:53.066Z,49.11
2022-09-20T02:01:53.090Z,53.41
2022-09-20T02:02:53.005Z,53.37
2022-09-20T02:03:52.978Z,48.36
2022-09-20T02:04:52.974Z,52.40
2022-09-20T02:05:52.966Z,53.58
2022-09-20T02:06:52.974Z,51.04
2022-09-20T02:07:52.963Z,49.69
2022-09-20T02:08:53.060Z,56.82
2022-09-20T02:09:52.946Z,51.10
2022-09-20T02:10:52.936Z,55.02
2022-09-20T02:11:52.946Z,55.30
2022-09-20T02:12:52.924Z,54.62
2022-09-20T02:13:52.910Z,51.56
2022-09-20T02:14:52.925Z,55.08
2022-09-20T02:15:52.902Z,53.51
2022-09-20T02:16:52.981Z,52.14
2022-09-20T02:17:53.894Z,54.37
2022-09-20T02:18:52.886Z,52.19
2022-09-20T02:19:52.877Z,54.01
2022-09-20T02:20:52.866Z,54.20
2022-09-20T02:21:52.862Z,55.09
2022-09-20T02:22:52.889Z,52.61
2022-09-20T02:23:52.895Z,54.80
2022-09-20T02:24:52.845Z,54.05
2022-09-20T02:25:52.842Z,52.90
2022-09-20T02:26:52.830Z,50.42
2022-09-20T02:27:52.834Z,56.91
2022-09-20T02:28:52.821Z,57.34
2022-09-20T02:29:52.815Z,53.30
2022-09-20T02:30:52.810Z,51.10
2022-09-20T02:31:52.854Z,51.10
2022-09-20T02:32:52.807Z,52.10
2022-09-20T02:33:52.789Z,52.16
2022-09-20T02:34:52.786Z,55.72
2022-09-20T02:35:52.776Z,57.09
2022-09-20T02:36:52.766Z,54.03
2022-09-20T02:37:52.773Z,55.09
2022-09-20T02:38:52.808Z,52.21
2022-09-20T02:39:52.752Z,57.82
2022-09-20T02:40:52.750Z,55.82
2022-09-20T02:41:52.741Z,56.20
2022-09-20T02:42:52.762Z,55.03
2022-09-20T02:43:52.717Z,53.26
2022-09-20T02:44:52.722Z,55.21
2022-09-20T02:45:52.814Z,56.66
2022-09-20T02:46:52.697Z,55.39
2022-09-20T02:47:52.701Z,54.15
2022-09-20T02:48:52.710Z,55.64
2022-09-20T02:49:52.678Z,53.70
2022-09-20T02:50:52.673Z,55.77
2022-09-20T02:51:52.669Z,57.85
2022-09-20T02:52:52.658Z,56.52
2022-09-20T02:53:52.745Z,56.39
2022-09-20T02:54:52.658Z,52.55
2022-09-20T02:55:52.645Z,55.92
2022-09-20T02:56:52.633Z,57.72
2022-09-20T02:57:52.634Z,54.92
2022-09-20T02:58:52.632Z,56.93
2022-09-20T02:59:52.618Z,58.31
2022-09-20T03:00:52.649Z,57.19
2022-09-20T03:01:52.634Z,59.18
2022-09-20T03:02:52.589Z,57.79
2022-09-20T03:03:52.593Z,58.77
2022-09-20T03:04:52.597Z,56.34
2022-09-20T03:05:52.638Z,55.82
2022-09-20T03:06:52.573Z,54.91
2022-09-20T03:07:52.565Z,57.50
2022-09-20T03:08:52.598Z,57.19
2022-09-20T03:09:52.549Z,55.46
2022-09-20T03:10:52.562Z,57.31
2022-09-20T03:11:52.537Z,57.00
2022-09-20T03:12:52.525Z,58.89
2022-09-20T03:13:52.525Z,58.05
2022-09-20T03:14:52.521Z,58.52
2022-09-20T03:15:52.510Z,56.75
2022-09-20T03:16:52.785Z,55.26
2022-09-20T03:17:52.493Z,60.71
2022-09-20T03:18:52.485Z,59.66
2022-09-20T03:19:52.484Z,58.87
2022-09-20T03:20:52.486Z,57.50
2022-09-20T03:21:52.481Z,58.22
2022-09-20T03:22:52.477Z,58.86
2022-09-20T03:23:52.490Z,58.81
2022-09-20T03:24:52.456Z,60.20
2022-09-20T03:25:52.445Z,58.84
2022-09-20T03:26:52.445Z,59.71
2022-09-20T03:27:52.441Z,59.06
2022-09-20T03:28:52.437Z,58.05
2022-09-20T03:29:52.414Z,57.79
2022-09-20T03:30:52.403Z,58.36
2022-09-20T03:31:52.487Z,58.13
2022-09-20T03:32:52.397Z,58.22
2022-09-20T03:33:52.413Z,57.37
2022-09-20T03:34:52.389Z,57.23
2022-09-20T03:35:52.382Z,58.48
2022-09-20T03:36:52.377Z,59.83
2022-09-20T03:37:52.369Z,60.36
2022-09-20T03:38:52.463Z,60.92
2022-09-20T03:39:52.353Z,59.79
2022-09-20T03:40:53.323Z,58.15
2022-09-20T03:41:52.346Z,58.17
2022-09-20T03:42:52.325Z,58.71
2022-09-20T03:43:52.335Z,57.90
2022-09-20T03:44:52.342Z,58.00
2022-09-20T03:45:52.369Z,58.63
2022-09-20T03:46:52.299Z,60.21
2022-09-20T03:47:52.305Z,58.55
2022-09-20T03:48:52.284Z,59.43
2022-09-20T03:49:53.294Z,58.48
2022-09-20T03:50:52.282Z,59.50
2022-09-20T03:51:52.282Z,58.08
2022-09-20T03:52:52.273Z,59.60
2022-09-20T03:53:52.262Z,58.58
2022-09-20T03:54:52.258Z,59.38
2022-09-20T03:55:52.270Z,60.16
2022-09-20T03:56:52.239Z,59.29
2022-09-20T03:57:52.233Z,59.93
2022-09-20T03:58:52.233Z,60.30
2022-09-20T03:59:52.229Z,57.87
2022-09-20T04:00:52.281Z,60.29
2022-09-20T04:01:52.268Z,59.64
2022-09-20T04:02:52.205Z,58.57
2022-09-20T04:03:52.273Z,61.00
2022-09-20T04:04:52.193Z,59.94
2022-09-20T04:05:52.191Z,59.69
2022-09-20T04:06:52.767Z,59.94
2022-09-20T04:07:52.173Z,60.41
2022-09-20T04:08:52.197Z,61.43
2022-09-20T04:09:52.163Z,58.69
2022-09-20T04:10:52.145Z,60.33
2022-09-20T04:11:52.154Z,60.33
2022-09-20T04:12:52.141Z,59.31
2022-09-20T04:13:52.129Z,60.08
2022-09-20T04:14:52.176Z,59.51
2022-09-20T04:15:52.116Z,59.73
2022-09-20T04:16:52.157Z,61.19
2022-09-20T04:17:52.115Z,60.93
2022-09-20T04:18:52.124Z,60.33
2022-09-20T04:19:52.089Z,61.24
2022-09-20T04:20:52.078Z,61.32
2022-09-20T04:21:52.073Z,59.55
2022-09-20T04:22:52.070Z,60.36
2022-09-20T04:23:52.074Z,62.17
2022-09-20T04:24:52.063Z,60.48
2022-09-20T04:25:52.054Z,62.72
2022-09-20T04:26:52.041Z,62.60
2022-09-20T04:27:52.035Z,61.63
2022-09-20T04:28:52.028Z,62.00
2022-09-20T04:29:52.031Z,62.59
2022-09-20T04:30:51.998Z,62.57
2022-09-20T04:31:54.057Z,61.96
2022-09-20T04:32:52.995Z,62.27
2022-09-20T04:33:51.986Z,62.66
2022-09-20T04:34:51.994Z,62.31
2022-09-20T04:35:51.976Z,62.68
2022-09-20T04:36:51.974Z,63.49
2022-09-20T04:37:51.960Z,64.30
2022-09-20T04:38:51.961Z,63.88
2022-09-20T04:39:51.967Z,63.72
2022-09-20T04:40:51.947Z,63.14
2022-09-20T04:41:51.939Z,64.42
2022-09-20T04:42:51.931Z,62.64
2022-09-20T04:43:51.926Z,62.74
2022-09-20T04:44:51.947Z,62.30
2022-09-20T04:45:51.956Z,62.27
2022-09-20T04:46:55.883Z,64.71
2022-09-20T04:47:52.895Z,65.08
2022-09-20T04:48:51.914Z,62.22
2022-09-20T04:49:51.903Z,64.40
2022-09-20T04:50:51.888Z,63.32
2022-09-20T04:51:51.867Z,64.01
2022-09-20T04:52:51.863Z,63.56
2022-09-20T04:53:51.856Z,61.89
2022-09-20T04:54:51.843Z,62.12
2022-09-20T04:55:51.855Z,63.57
2022-09-20T04:56:51.860Z,61.91
2022-09-20T04:57:51.819Z,61.82
2022-09-20T04:58:52.823Z,61.44
2022-09-20T04:59:51.822Z,61.58
2022-09-20T05:00:51.863Z,61.63
2022-09-20T05:01:51.839Z,61.19
2022-09-20T05:02:51.794Z,61.68
2022-09-20T05:03:51.785Z,62.06
2022-09-20T05:04:51.882Z,62.52
2022-09-20T05:05:51.818Z,61.76
2022-09-20T05:06:51.765Z,62.25
2022-09-20T05:07:51.750Z,63.41
2022-09-20T05:08:54.230Z,62.38
2022-09-20T05:09:52.748Z,61.64
2022-09-20T05:10:51.741Z,61.04
2022-09-20T05:11:51.738Z,62.69
2022-09-20T05:12:52.729Z,62.25
2022-09-20T05:13:51.727Z,63.63
2022-09-20T05:14:51.718Z,61.66
2022-09-20T05:15:51.708Z,62.15
2022-09-20T05:16:51.747Z,62.32
2022-09-20T05:17:51.704Z,60.38
2022-09-20T05:18:51.694Z,62.14
2022-09-20T05:19:51.683Z,62.62
2022-09-20T05:20:51.683Z,60.76
2022-09-20T05:21:51.687Z,59.39
2022-09-20T05:22:51.664Z,60.93
2022-09-20T05:23:51.658Z,62.11
2022-09-20T05:24:51.655Z,62.57
2022-09-20T05:25:51.642Z,62.49
2022-09-20T05:26:51.659Z,62.37
2022-09-20T05:27:51.634Z,61.29
2022-09-20T05:28:51.610Z,62.59
2022-09-20T05:29:51.623Z,60.98
2022-09-20T05:30:51.614Z,61.35
2022-09-20T05:31:51.704Z,61.33
2022-09-20T05:32:51.602Z,62.56
2022-09-20T05:33:51.590Z,63.19
2022-09-20T05:34:51.590Z,62.05
2022-09-20T05:35:51.591Z,60.53
2022-09-20T05:36:51.590Z,61.30
2022-09-20T05:37:51.570Z,60.67
2022-09-20T05:38:51.559Z,61.92
2022-09-20T05:39:51.554Z,63.26
2022-09-20T05:40:51.583Z,63.12
2022-09-20T05:41:51.547Z,61.92
2022-09-20T05:42:51.554Z,62.69
2022-09-20T05:43:51.530Z,60.86
2022-09-20T05:44:51.521Z,63.32
2022-09-20T05:45:51.538Z,63.83
2022-09-20T05:46:51.514Z,63.29
2022-09-20T05:47:51.513Z,62.27
2022-09-20T05:48:51.495Z,62.61
2022-09-20T05:49:51.482Z,61.99
2022-09-20T05:50:53.847Z,62.54
2022-09-20T05:51:51.478Z,59.97
2022-09-20T05:52:51.494Z,61.13
2022-09-20T05:53:51.462Z,61.02
2022-09-20T05:54:51.454Z,61.67
2022-09-20T05:55:51.454Z,61.90
2022-09-20T05:56:51.442Z,61.81
2022-09-20T05:57:51.450Z,61.30
2022-09-20T05:58:51.429Z,61.61
2022-09-20T05:59:51.427Z,60.84
2022-09-20T06:00:51.449Z,60.72
2022-09-20T06:01:51.406Z,62.09
2022-09-20T06:02:51.415Z,62.53
2022-09-20T06:03:51.390Z,61.12
2022-09-20T06:04:52.392Z,61.81
2022-09-20T06:05:51.383Z,61.00
2022-09-20T06:06:51.375Z,60.63
2022-09-20T06:07:51.393Z,61.88
2022-09-20T06:08:51.365Z,60.48
2022-09-20T06:09:51.360Z,60.39
2022-09-20T06:10:51.347Z,61.23
2022-09-20T06:11:51.347Z,59.75
2022-09-20T06:12:51.322Z,60.72
2022-09-20T06:13:51.353Z,60.94
2022-09-20T06:14:51.326Z,61.96
2022-09-20T06:15:51.313Z,62.61
2022-09-20T06:16:51.344Z,62.30
2022-09-20T06:17:51.346Z,61.23
2022-09-20T06:18:51.305Z,62.68
2022-09-20T06:19:51.290Z,62.28
2022-09-20T06:20:51.282Z,62.76
2022-09-20T06:21:51.266Z,62.31
2022-09-20T06:22:51.261Z,60.97
2022-09-20T06:23:51.266Z,61.77
2022-09-20T06:24:51.270Z,61.57
2022-09-20T06:25:51.252Z,63.31
2022-09-20T06:26:51.243Z,62.96
2022-09-20T06:27:51.230Z,62.74
2022-09-20T06:28:54.143Z,61.98
2022-09-20T06:29:52.238Z,61.71
2022-09-20T06:30:51.245Z,62.77
2022-09-20T06:31:51.218Z,61.82
2022-09-20T06:32:51.202Z,59.66
2022-09-20T06:33:51.186Z,63.82
2022-09-20T06:34:51.198Z,63.00
2022-09-20T06:35:52.386Z,61.56
2022-09-20T06:36:51.170Z,62.12
2022-09-20T06:37:51.850Z,62.85
2022-09-20T06:38:51.159Z,60.54
2022-09-20T06:39:51.150Z,61.98
2022-09-20T06:40:51.151Z,62.14
2022-09-20T06:41:51.139Z,61.26
2022-09-20T06:42:51.134Z,63.27
2022-09-20T06:43:51.122Z,61.94
2022-09-20T06:44:51.133Z,62.55
2022-09-20T06:45:51.178Z,63.09
2022-09-20T06:46:51.101Z,63.35
2022-09-20T06:47:51.095Z,61.62
2022-09-20T06:48:51.087Z,59.90
2022-09-20T06:49:51.150Z,62.84
2022-09-20T06:50:51.094Z,63.66
2022-09-20T06:51:51.076Z,62.35
2022-09-20T06:52:51.061Z,60.34
2022-09-20T06:53:51.053Z,60.97
2022-09-20T06:54:51.056Z,60.89
2022-09-20T06:55:51.068Z,61.90
2022-09-20T06:56:51.049Z,60.45
2022-09-20T06:57:51.031Z,59.48
2022-09-20T06:58:51.022Z,59.33
2022-09-20T06:59:51.017Z,60.19
2022-09-20T07:00:51.049Z,58.14
2022-09-20T07:01:51.078Z,59.00
2022-09-20T07:02:50.999Z,59.17
2022-09-20T07:03:50.993Z,59.33
2022-09-20T07:04:50.989Z,58.86
2022-09-20T07:05:50.977Z,59.94
2022-09-20T07:06:50.986Z,59.32
2022-09-20T07:07:50.962Z,59.81
2022-09-20T07:08:50.962Z,60.07
2022-09-20T07:09:50.957Z,59.26
2022-09-20T07:10:50.943Z,59.63
2022-09-20T07:11:50.946Z,61.70
2022-09-20T07:12:50.937Z,60.91
2022-09-20T07:13:50.921Z,60.78
2022-09-20T07:14:50.917Z,60.81
2022-09-20T07:15:50.919Z,59.17
2022-09-20T07:16:50.940Z,60.46
2022-09-20T07:17:50.902Z,60.06
2022-09-20T07:18:50.901Z,60.53
2022-09-20T07:19:51.885Z,60.46
2022-09-20T07:20:50.877Z,61.21
2022-09-20T07:21:50.885Z,61.84
2022-09-20T07:22:50.896Z,60.70
2022-09-20T07:23:50.862Z,60.00
2022-09-20T07:24:50.857Z,56.49
2022-09-20T07:25:50.849Z,60.54
2022-09-20T07:26:50.846Z,59.77
2022-09-20T07:27:50.862Z,60.05
2022-09-20T07:28:50.837Z,61.46
2022-09-20T07:29:50.837Z,59.70
2022-09-20T07:30:50.821Z,60.63
2022-09-20T07:31:50.905Z,59.77
2022-09-20T07:32:50.818Z,60.16
2022-09-20T07:33:50.818Z,59.79
2022-09-20T07:34:50.806Z,61.52
2022-09-20T07:35:50.785Z,60.76
2022-09-20T07:36:50.781Z,58.87
2022-09-20T07:37:50.789Z,59.34
2022-09-20T07:38:50.769Z,58.54
2022-09-20T07:39:50.777Z,60.04
2022-09-20T07:40:50.774Z,61.29
2022-09-20T07:41:50.768Z,61.79
2022-09-20T07:42:55.985Z,62.97
2022-09-20T07:43:51.737Z,61.56
2022-09-20T07:44:50.738Z,60.38
2022-09-20T07:45:50.754Z,61.62
2022-09-20T07:46:50.725Z,61.95
2022-09-20T07:47:50.740Z,61.52
2022-09-20T07:48:50.709Z,60.52
2022-09-20T07:49:50.705Z,60.90
2022-09-20T07:50:50.673Z,59.58
2022-09-20T07:51:50.696Z,59.98
2022-09-20T07:52:50.700Z,58.71
2022-09-20T07:53:50.673Z,59.43
2022-09-20T07:54:50.669Z,60.22
2022-09-20T07:55:50.665Z,60.39
2022-09-20T07:56:50.653Z,62.71
2022-09-20T07:57:50.654Z,61.31
2022-09-20T07:58:52.577Z,60.01
2022-09-20T07:59:50.647Z,59.47
2022-09-20T08:00:50.700Z,58.06
2022-09-20T08:01:50.664Z,58.17
2022-09-20T08:02:50.625Z,58.63
2022-09-20T08:03:50.643Z,59.48
2022-09-20T08:04:50.610Z,58.82
2022-09-20T08:05:50.609Z,58.17
2022-09-20T08:06:50.599Z,58.64
2022-09-20T08:07:50.589Z,59.54
2022-09-20T08:08:50.589Z,58.07
2022-09-20T08:09:50.566Z,58.67
2022-09-20T08:10:50.577Z,59.71
2022-09-20T08:11:50.565Z,58.37
2022-09-20T08:14:08.864Z,58.34
2022-09-20T08:14:52.557Z,59.57
2022-09-20T08:15:50.528Z,59.41
2022-09-20T08:16:50.621Z,59.54
2022-09-20T08:17:50.537Z,59.86
2022-09-20T08:18:50.532Z,58.95
2022-09-20T08:19:50.528Z,57.56
2022-09-20T08:20:50.504Z,57.77
2022-09-20T08:21:50.500Z,59.19
2022-09-20T08:23:12.734Z,61.47
2022-09-20T08:23:51.512Z,60.80
2022-09-20T08:24:50.477Z,60.36
2022-09-20T08:25:50.462Z,58.80
2022-09-20T08:26:50.472Z,58.47
2022-09-20T08:27:50.451Z,60.27
2022-09-20T08:28:50.453Z,58.64
2022-09-20T08:29:50.477Z,57.92
2022-09-20T08:30:50.433Z,60.15
2022-09-20T08:31:50.464Z,58.65
2022-09-20T08:32:50.433Z,58.08
2022-09-20T08:33:50.427Z,59.85
2022-09-20T08:34:50.536Z,57.42
2022-09-20T08:35:50.409Z,56.83
2022-09-20T08:36:50.404Z,57.93
2022-09-20T08:37:50.684Z,58.42
2022-09-20T08:39:59.697Z,57.37
2022-09-20T08:40:52.377Z,56.36
2022-09-20T08:41:50.373Z,56.30
2022-09-20T08:42:50.364Z,56.82
2022-09-20T08:43:50.362Z,57.27
2022-09-20T08:44:57.738Z,57.07
2022-09-20T08:45:52.418Z,57.38
2022-09-20T08:46:50.336Z,58.24
2022-09-20T08:47:50.329Z,57.50
2022-09-20T08:48:50.328Z,55.82
2022-09-20T08:49:56.395Z,56.41
2022-09-20T08:50:51.300Z,57.06
2022-09-20T08:51:50.302Z,58.72
2022-09-20T08:52:50.296Z,58.68
2022-09-20T08:53:50.284Z,57.84
2022-09-20T08:54:50.296Z,58.04
2022-09-20T08:55:50.265Z,60.70
2022-09-20T08:56:50.273Z,56.92
2022-09-20T08:57:50.264Z,53.11
2022-09-20T08:58:50.237Z,54.60
2022-09-20T08:59:50.244Z,51.71
2022-09-20T09:00:50.268Z,54.32
2022-09-20T09:01:50.228Z,54.82
2022-09-20T09:02:50.224Z,55.37
2022-09-20T09:03:50.221Z,56.96
2022-09-20T09:04:50.218Z,57.38
2022-09-20T09:05:50.214Z,53.78
2022-09-20T09:06:50.200Z,53.13
2022-09-20T09:07:50.216Z,53.82
2022-09-20T09:08:50.184Z,54.62
2022-09-20T09:09:50.180Z,53.59
2022-09-20T09:10:50.171Z,52.64
2022-09-20T09:11:50.156Z,52.27
2022-09-20T09:12:50.173Z,53.48
2022-09-20T09:13:50.149Z,55.04
2022-09-20T09:14:50.148Z,55.55
2022-09-20T09:15:50.191Z,54.97
2022-09-20T09:16:50.145Z,51.50
2022-09-20T09:17:50.128Z,51.68
2022-09-20T09:18:50.125Z,52.46
2022-09-20T09:19:50.112Z,52.51
2022-09-20T09:20:50.092Z,55.15
2022-09-20T09:21:50.097Z,54.58
2022-09-20T09:22:50.092Z,53.78
2022-09-20T09:23:50.084Z,51.74
2022-09-20T09:24:50.081Z,52.42
2022-09-20T09:25:50.072Z,51.67
2022-09-20T09:26:50.071Z,50.78
2022-09-20T09:27:50.052Z,51.74
2022-09-20T09:28:50.063Z,51.81
2022-09-20T09:29:50.044Z,50.87
2022-09-20T09:30:50.029Z,52.16
2022-09-20T09:31:50.155Z,53.17
2022-09-20T09:32:50.032Z,53.62
2022-09-20T09:33:50.032Z,54.05
2022-09-20T09:34:50.036Z,53.87
2022-09-20T09:35:50.011Z,54.79
2022-09-20T09:36:50.004Z,55.40
2022-09-20T09:37:49.995Z,56.13
2022-09-20T09:38:51.015Z,58.28
2022-09-20T09:39:49.994Z,56.22
2022-09-20T09:40:49.988Z,58.06
2022-09-20T09:41:49.982Z,61.08
2022-09-20T09:42:49.967Z,58.46
2022-09-20T09:43:49.961Z,56.78
2022-09-20T09:44:49.977Z,56.87
2022-09-20T09:45:50.043Z,56.34
2022-09-20T09:46:49.946Z,58.43
2022-09-20T09:47:49.944Z,57.71
2022-09-20T09:48:50.011Z,59.88
2022-09-20T09:49:49.943Z,58.95
2022-09-20T09:50:49.920Z,56.73
2022-09-20T09:51:49.921Z,58.28
2022-09-20T09:52:49.904Z,58.20
2022-09-20T09:53:49.898Z,59.20
2022-09-20T09:54:49.902Z,59.39
2022-09-20T09:55:49.882Z,57.35
2022-09-20T09:56:49.880Z,58.48
2022-09-20T09:57:49.876Z,57.51
2022-09-20T09:58:49.863Z,57.88
2022-09-20T09:59:49.854Z,56.66
2022-09-20T10:00:49.909Z,57.07
2022-09-20T10:01:49.958Z,57.87
2022-09-20T10:02:49.864Z,52.56
2022-09-20T10:03:49.827Z,52.95
2022-09-20T10:04:49.826Z,54.01
2022-09-20T10:05:49.827Z,54.54
2022-09-20T10:06:52.330Z,53.48
2022-09-20T10:07:50.800Z,52.92
2022-09-20T10:08:49.782Z,51.62
2022-09-20T10:09:49.790Z,51.58
2022-09-20T10:10:49.774Z,52.60
2022-09-20T10:11:49.794Z,53.39
2022-09-20T10:12:49.762Z,52.48
2022-09-20T10:13:49.758Z,54.61
2022-09-20T10:14:49.759Z,55.58
2022-09-20T10:15:49.766Z,54.17
2022-09-20T10:16:49.798Z,52.99
2022-09-20T10:17:49.732Z,55.38
2022-09-20T10:18:49.726Z,55.84
2022-09-20T10:19:49.707Z,55.65
2022-09-20T10:20:50.754Z,58.12
2022-09-20T10:21:49.703Z,55.08
2022-09-20T10:23:14.729Z,54.54
2022-09-20T10:24:03.146Z,57.38
2022-09-20T10:24:51.828Z,57.41
2022-09-20T10:25:50.783Z,56.95
2022-09-20T10:26:50.702Z,56.03
2022-09-20T10:27:49.702Z,55.62
2022-09-20T10:28:49.663Z,55.00
2022-09-20T10:29:49.658Z,55.92
2022-09-20T10:30:49.692Z,56.93
2022-09-20T10:31:49.642Z,56.07
2022-09-20T10:32:49.659Z,57.75
2022-09-20T10:33:49.626Z,55.59
2022-09-20T10:34:49.634Z,55.95
2022-09-20T10:35:49.610Z,57.89
2022-09-20T10:36:50.610Z,56.14
2022-09-20T10:37:49.697Z,54.90
2022-09-20T10:38:49.642Z,54.41
2022-09-20T10:39:49.599Z,55.11
2022-09-20T10:40:49.595Z,55.30
2022-09-20T10:41:49.578Z,57.29
2022-09-20T10:42:49.570Z,57.71
2022-09-20T10:43:49.591Z,56.08
2022-09-20T10:44:49.554Z,56.19
2022-09-20T10:46:27.915Z,56.09
2022-09-20T10:46:51.646Z,57.23
2022-09-20T10:47:49.547Z,57.85
2022-09-20T10:48:49.543Z,56.16
2022-09-20T10:49:50.872Z,52.30
2022-09-20T10:50:49.523Z,55.51
2022-09-20T10:51:49.511Z,53.36
2022-09-20T10:52:49.504Z,55.90
2022-09-20T10:53:49.518Z,56.61
2022-09-20T10:54:49.494Z,54.70
2022-09-20T10:55:49.488Z,55.04
2022-09-20T10:56:49.487Z,55.06
2022-09-20T10:57:49.474Z,55.62
2022-09-20T10:58:49.487Z,59.52
2022-09-20T10:59:49.467Z,55.03
2022-09-20T11:00:49.487Z,57.13
2022-09-20T11:01:49.518Z,55.81
2022-09-20T11:02:49.434Z,56.94
2022-09-20T11:03:49.438Z,55.28
2022-09-20T11:04:49.451Z,56.98
2022-09-20T11:05:49.426Z,54.48
2022-09-20T11:06:49.418Z,55.05
2022-09-20T11:07:49.487Z,55.26
2022-09-20T11:08:49.394Z,55.87
2022-09-20T11:09:49.410Z,56.09
2022-09-20T11:10:49.385Z,57.32
2022-09-20T11:11:49.382Z,57.48
2022-09-20T11:12:49.374Z,54.02
2022-09-20T11:13:49.375Z,56.85
2022-09-20T11:14:49.378Z,53.44
2022-09-20T11:15:49.370Z,56.89
2022-09-20T11:16:49.411Z,56.20
2022-09-20T11:17:49.350Z,56.61
2022-09-20T11:18:49.341Z,56.14
2022-09-20T11:19:49.341Z,56.27
2022-09-20T11:20:49.339Z,56.65
2022-09-20T11:21:49.321Z,55.18
2022-09-20T11:22:49.308Z,55.32
2022-09-20T11:23:49.301Z,55.32
2022-09-20T11:24:49.297Z,55.81
2022-09-20T11:25:49.302Z,53.97
2022-09-20T11:26:49.329Z,53.39
2022-09-20T11:27:49.281Z,54.81
2022-09-20T11:28:49.274Z,53.71
2022-09-20T11:29:49.271Z,55.35
2022-09-20T11:30:49.273Z,53.14
2022-09-20T11:31:49.287Z,52.88
2022-09-20T11:32:49.253Z,55.46
2022-09-20T11:33:49.242Z,55.21
2022-09-20T11:34:49.233Z,54.51
2022-09-20T11:35:49.237Z,54.75
2022-09-20T11:36:49.226Z,54.88
2022-09-20T11:37:49.221Z,55.01
2022-09-20T11:38:53.010Z,54.96
2022-09-20T11:39:50.202Z,56.21
2022-09-20T11:40:49.210Z,55.64
2022-09-20T11:41:49.218Z,55.78
2022-09-20T11:42:49.181Z,54.09
2022-09-20T11:43:49.177Z,55.17
2022-09-20T11:44:49.165Z,54.97
2022-09-20T11:45:49.297Z,53.62
2022-09-20T11:46:49.170Z,56.41
2022-09-20T11:47:56.225Z,55.97
2022-09-20T11:48:51.149Z,56.56
2022-09-20T11:49:49.135Z,54.20
2022-09-20T11:50:49.137Z,56.76
2022-09-20T11:51:49.129Z,54.70
2022-09-20T11:52:49.129Z,53.09
2022-09-20T11:53:49.118Z,55.18
2022-09-20T11:54:49.118Z,55.49
2022-09-20T11:55:49.105Z,54.96
2022-09-20T11:56:49.093Z,55.23
2022-09-20T11:57:49.081Z,55.43
2022-09-20T11:58:49.083Z,54.58
2022-09-20T11:59:49.094Z,54.38
2022-09-20T12:00:49.069Z,56.32
2022-09-20T12:01:49.101Z,56.09
2022-09-20T12:02:49.184Z,56.58
2022-09-20T12:03:49.049Z,55.42
2022-09-20T12:04:49.105Z,55.57
2022-09-20T12:05:49.053Z,56.02
2022-09-20T12:06:49.035Z,53.35
2022-09-20T12:07:49.029Z,55.64
2022-09-20T12:08:49.021Z,56.86
2022-09-20T12:09:49.018Z,55.13
2022-09-20T12:10:49.013Z,52.18
2022-09-20T12:11:49.002Z,54.48
2022-09-20T12:12:48.993Z,55.46
2022-09-20T12:13:49.032Z,53.43
2022-09-20T12:14:48.982Z,52.12
2022-09-20T12:15:48.990Z,52.38
2022-09-20T12:16:48.999Z,51.66
2022-09-20T12:17:48.953Z,52.65
2022-09-20T12:18:48.955Z,53.99
2022-09-20T12:19:48.941Z,52.35
2022-09-20T12:20:48.946Z,52.19
2022-09-20T12:21:49.534Z,54.46
2022-09-20T12:22:49.921Z,55.51
2022-09-20T12:23:48.937Z,54.65
2022-09-20T12:24:48.913Z,54.85
2022-09-20T12:25:48.918Z,54.81
2022-09-20T12:26:48.901Z,55.22
2022-09-20T12:27:49.857Z,54.42
2022-09-20T12:28:48.897Z,54.18
2022-09-20T12:29:48.885Z,52.05
2022-09-20T12:30:49.085Z,54.65
2022-09-20T12:31:49.034Z,54.66
2022-09-20T12:32:48.867Z,52.70
2022-09-20T12:33:48.862Z,52.34
2022-09-20T12:34:48.852Z,54.79
2022-09-20T12:35:48.834Z,55.51
2022-09-20T12:36:48.841Z,58.74
2022-09-20T12:37:49.825Z,56.76
2022-09-20T12:38:48.813Z,55.10
2022-09-20T12:39:48.817Z,55.49
2022-09-20T12:40:48.814Z,56.64
2022-09-20T12:41:48.809Z,56.29
2022-09-20T12:42:48.797Z,54.59
2022-09-20T12:43:48.797Z,53.79
2022-09-20T12:44:48.782Z,53.11
2022-09-20T12:45:48.808Z,52.75
2022-09-20T12:46:48.789Z,51.46
2022-09-20T12:47:48.769Z,54.12
2022-09-20T12:48:48.762Z,55.30
2022-09-20T12:49:48.892Z,53.61
2022-09-20T12:50:48.753Z,54.91
2022-09-20T12:51:48.733Z,56.49
2022-09-20T12:52:48.751Z,55.36
2022-09-20T12:53:48.730Z,54.05
2022-09-20T12:54:48.715Z,55.37